sensor_id;sensor_type;location;lat;lon;timestamp;temperature;humidity
7516;DHT22;3799;47.184;8.538;2023-04-29T00:01:08;14.30;99.90
7516;DHT22;3799;47.184;8.538;2023-04-29T00:03:36;14.10;99.90
7516;DHT22;3799;47.184;8.538;2023-04-29T00:06:04;14.10;99.90
7516;DHT22;3799;47.184;8.538;2023-04-29T00:08:31;14.20;99.90
7516;DHT22;3799;47.184;8.538;2023-04-29T00:11:02;14.10;99.90
7516;DHT22;3799;47.184;8.538;2023-04-29T00:13:34;14.10;99.90
7516;DHT22;3799;47.184;8.538;2023-04-29T00:16:01;14.10;99.90
7516;DHT22;3799;47.184;8.538;2023-04-29T00:18:29;14.00;99.90
7516;DHT22;3799;47.184;8.538;2023-04-29T00:20:57;14.00;99.90
7516;DHT22;3799;47.184;8.538;2023-04-29T00:23:25;14.10;99.90
7516;DHT22;3799;47.184;8.538;2023-04-29T00:25:52;14.20;99.90
7516;DHT22;3799;47.184;8.538;2023-04-29T00:28:19;14.20;99.90
7516;DHT22;3799;47.184;8.538;2023-04-29T00:30:47;13.90;99.90
7516;DHT22;3799;47.184;8.538;2023-04-29T00:33:14;13.90;99.90
7516;DHT22;3799;47.184;8.538;2023-04-29T00:35:41;14.00;99.90
7516;DHT22;3799;47.184;8.538;2023-04-29T00:38:09;14.10;99.90
7516;DHT22;3799;47.184;8.538;2023-04-29T00:40:36;14.30;99.90
7516;DHT22;3799;47.184;8.538;2023-04-29T00:43:04;14.10;99.90
7516;DHT22;3799;47.184;8.538;2023-04-29T00:45:34;14.00;99.90
7516;DHT22;3799;47.184;8.538;2023-04-29T00:48:01;14.00;99.90
7516;DHT22;3799;47.184;8.538;2023-04-29T00:50:29;14.20;99.90
7516;DHT22;3799;47.184;8.538;2023-04-29T00:52:56;14.00;99.90
7516;DHT22;3799;47.184;8.538;2023-04-29T00:55:24;14.10;99.90
7516;DHT22;3799;47.184;8.538;2023-04-29T00:57:52;14.00;99.90
7516;DHT22;3799;47.184;8.538;2023-04-29T01:00:20;14.10;99.90
7516;DHT22;3799;47.184;8.538;2023-04-29T01:02:48;14.10;99.90
7516;DHT22;3799;47.184;8.538;2023-04-29T01:05:16;14.10;99.90
7516;DHT22;3799;47.184;8.538;2023-04-29T01:07:53;14.10;99.90
7516;DHT22;3799;47.184;8.538;2023-04-29T01:10:34;14.00;99.90
7516;DHT22;3799;47.184;8.538;2023-04-29T01:13:11;14.20;99.90
7516;DHT22;3799;47.184;8.538;2023-04-29T01:15:53;14.00;99.90
7516;DHT22;3799;47.184;8.538;2023-04-29T01:18:33;13.90;99.90
7516;DHT22;3799;47.184;8.538;2023-04-29T01:21:01;13.70;99.90
7516;DHT22;3799;47.184;8.538;2023-04-29T01:23:29;14.00;99.90
7516;DHT22;3799;47.184;8.538;2023-04-29T01:25:57;13.80;99.90
7516;DHT22;3799;47.184;8.538;2023-04-29T01:28:45;13.70;99.90
7516;DHT22;3799;47.184;8.538;2023-04-29T01:31:17;13.80;99.90
7516;DHT22;3799;47.184;8.538;2023-04-29T01:34:07;14.10;99.90
7516;DHT22;3799;47.184;8.538;2023-04-29T01:37:03;13.90;99.90
7516;DHT22;3799;47.184;8.538;2023-04-29T01:42:18;14.00;99.90
7516;DHT22;3799;47.184;8.538;2023-04-29T01:44:50;14.00;99.90
7516;DHT22;3799;47.184;8.538;2023-04-29T01:47:19;13.80;99.90
7516;DHT22;3799;47.184;8.538;2023-04-29T01:49:48;13.70;99.90
7516;DHT22;3799;47.184;8.538;2023-04-29T01:52:15;14.10;99.90
7516;DHT22;3799;47.184;8.538;2023-04-29T01:54:43;13.80;99.90
7516;DHT22;3799;47.184;8.538;2023-04-29T01:57:11;13.90;99.90
7516;DHT22;3799;47.184;8.538;2023-04-29T01:59:38;14.00;99.90
7516;DHT22;3799;47.184;8.538;2023-04-29T02:02:06;14.00;99.90
7516;DHT22;3799;47.184;8.538;2023-04-29T02:04:33;14.10;99.90
7516;DHT22;3799;47.184;8.538;2023-04-29T02:07:00;14.20;99.90
7516;DHT22;3799;47.184;8.538;2023-04-29T02:09:27;13.90;99.90
7516;DHT22;3799;47.184;8.538;2023-04-29T02:11:55;13.80;99.90
7516;DHT22;3799;47.184;8.538;2023-04-29T02:14:22;13.90;99.90
7516;DHT22;3799;47.184;8.538;2023-04-29T02:17:03;13.60;99.90
7516;DHT22;3799;47.184;8.538;2023-04-29T02:19:32;13.80;99.90
7516;DHT22;3799;47.184;8.538;2023-04-29T02:22:09;13.90;99.90
7516;DHT22;3799;47.184;8.538;2023-04-29T02:24:38;13.90;99.90
7516;DHT22;3799;47.184;8.538;2023-04-29T02:27:06;13.80;99.90
7516;DHT22;3799;47.184;8.538;2023-04-29T02:29:33;13.90;99.90
7516;DHT22;3799;47.184;8.538;2023-04-29T02:32:00;13.70;99.90
7516;DHT22;3799;47.184;8.538;2023-04-29T02:34:28;13.70;99.90
7516;DHT22;3799;47.184;8.538;2023-04-29T02:36:55;13.40;99.90
7516;DHT22;3799;47.184;8.538;2023-04-29T02:39:25;13.60;99.90
7516;DHT22;3799;47.184;8.538;2023-04-29T02:41:54;13.60;99.90
7516;DHT22;3799;47.184;8.538;2023-04-29T02:44:22;13.70;99.90
7516;DHT22;3799;47.184;8.538;2023-04-29T02:46:49;13.40;99.90
7516;DHT22;3799;47.184;8.538;2023-04-29T02:49:16;13.70;99.90
7516;DHT22;3799;47.184;8.538;2023-04-29T02:51:44;13.60;99.90
7516;DHT22;3799;47.184;8.538;2023-04-29T02:54:18;13.80;99.90
7516;DHT22;3799;47.184;8.538;2023-04-29T02:56:45;13.50;99.90
7516;DHT22;3799;47.184;8.538;2023-04-29T02:59:12;13.60;99.90
7516;DHT22;3799;47.184;8.538;2023-04-29T03:01:40;13.30;99.90
7516;DHT22;3799;47.184;8.538;2023-04-29T03:04:08;13.60;99.90
7516;DHT22;3799;47.184;8.538;2023-04-29T03:06:49;13.80;99.90
7516;DHT22;3799;47.184;8.538;2023-04-29T03:09:17;13.60;99.90
7516;DHT22;3799;47.184;8.538;2023-04-29T03:11:45;13.60;99.90
7516;DHT22;3799;47.184;8.538;2023-04-29T03:14:13;13.50;99.90
7516;DHT22;3799;47.184;8.538;2023-04-29T03:16:43;13.70;99.90
7516;DHT22;3799;47.184;8.538;2023-04-29T03:19:10;13.60;99.90
7516;DHT22;3799;47.184;8.538;2023-04-29T03:21:37;13.70;99.90
7516;DHT22;3799;47.184;8.538;2023-04-29T03:24:05;13.70;99.90
7516;DHT22;3799;47.184;8.538;2023-04-29T03:26:32;13.40;99.90
7516;DHT22;3799;47.184;8.538;2023-04-29T03:29:00;13.50;99.90
7516;DHT22;3799;47.184;8.538;2023-04-29T03:31:28;13.70;99.90
7516;DHT22;3799;47.184;8.538;2023-04-29T03:33:56;13.70;99.90
7516;DHT22;3799;47.184;8.538;2023-04-29T03:36:23;13.50;99.90
7516;DHT22;3799;47.184;8.538;2023-04-29T03:38:50;13.80;99.90
7516;DHT22;3799;47.184;8.538;2023-04-29T03:41:18;13.50;99.90
7516;DHT22;3799;47.184;8.538;2023-04-29T03:43:46;13.40;99.90
7516;DHT22;3799;47.184;8.538;2023-04-29T03:46:13;13.60;99.90
7516;DHT22;3799;47.184;8.538;2023-04-29T03:48:41;13.60;99.90
7516;DHT22;3799;47.184;8.538;2023-04-29T03:51:08;13.30;99.90
7516;DHT22;3799;47.184;8.538;2023-04-29T03:53:39;13.60;99.90
7516;DHT22;3799;47.184;8.538;2023-04-29T03:56:07;13.30;99.90
7516;DHT22;3799;47.184;8.538;2023-04-29T03:58:34;13.20;99.90
7516;DHT22;3799;47.184;8.538;2023-04-29T04:01:01;13.60;99.90
7516;DHT22;3799;47.184;8.538;2023-04-29T04:03:29;13.40;99.90
7516;DHT22;3799;47.184;8.538;2023-04-29T04:05:57;13.70;99.90
7516;DHT22;3799;47.184;8.538;2023-04-29T04:08:25;13.40;99.90
7516;DHT22;3799;47.184;8.538;2023-04-29T04:10:52;13.50;99.90
7516;DHT22;3799;47.184;8.538;2023-04-29T04:13:20;13.60;99.90
7516;DHT22;3799;47.184;8.538;2023-04-29T04:15:49;13.60;99.90
7516;DHT22;3799;47.184;8.538;2023-04-29T04:18:18;13.60;99.90
7516;DHT22;3799;47.184;8.538;2023-04-29T04:20:45;13.60;99.90
7516;DHT22;3799;47.184;8.538;2023-04-29T04:23:13;13.70;99.90
7516;DHT22;3799;47.184;8.538;2023-04-29T04:25:50;13.40;99.90
7516;DHT22;3799;47.184;8.538;2023-04-29T04:28:19;13.60;99.90
7516;DHT22;3799;47.184;8.538;2023-04-29T04:30:48;13.60;99.90
7516;DHT22;3799;47.184;8.538;2023-04-29T04:33:16;13.60;99.90
7516;DHT22;3799;47.184;8.538;2023-04-29T04:35:43;13.60;99.90
7516;DHT22;3799;47.184;8.538;2023-04-29T04:38:10;13.70;99.90
7516;DHT22;3799;47.184;8.538;2023-04-29T04:40:41;13.70;99.90
7516;DHT22;3799;47.184;8.538;2023-04-29T04:43:09;13.60;99.90
7516;DHT22;3799;47.184;8.538;2023-04-29T04:45:36;13.80;99.90
7516;DHT22;3799;47.184;8.538;2023-04-29T04:48:03;13.60;99.90
7516;DHT22;3799;47.184;8.538;2023-04-29T04:50:31;13.60;99.90
7516;DHT22;3799;47.184;8.538;2023-04-29T04:52:58;13.60;99.90
7516;DHT22;3799;47.184;8.538;2023-04-29T04:55:27;13.70;99.90
7516;DHT22;3799;47.184;8.538;2023-04-29T04:57:55;13.60;99.90
7516;DHT22;3799;47.184;8.538;2023-04-29T05:00:22;13.60;99.90
7516;DHT22;3799;47.184;8.538;2023-04-29T05:02:49;13.50;99.90
7516;DHT22;3799;47.184;8.538;2023-04-29T05:05:17;13.60;99.90
7516;DHT22;3799;47.184;8.538;2023-04-29T05:07:45;13.60;99.90
7516;DHT22;3799;47.184;8.538;2023-04-29T05:10:12;13.80;99.90
7516;DHT22;3799;47.184;8.538;2023-04-29T05:12:39;13.80;99.90
7516;DHT22;3799;47.184;8.538;2023-04-29T05:15:07;13.60;99.90
7516;DHT22;3799;47.184;8.538;2023-04-29T05:17:35;13.80;99.90
7516;DHT22;3799;47.184;8.538;2023-04-29T05:20:02;13.60;99.90
7516;DHT22;3799;47.184;8.538;2023-04-29T05:22:33;13.70;99.90
7516;DHT22;3799;47.184;8.538;2023-04-29T05:25:00;13.90;99.90
7516;DHT22;3799;47.184;8.538;2023-04-29T05:27:29;13.80;99.90
7516;DHT22;3799;47.184;8.538;2023-04-29T05:29:56;13.60;99.90
7516;DHT22;3799;47.184;8.538;2023-04-29T05:32:23;13.80;99.90
7516;DHT22;3799;47.184;8.538;2023-04-29T05:34:51;13.90;99.90
7516;DHT22;3799;47.184;8.538;2023-04-29T05:37:18;13.80;99.90
7516;DHT22;3799;47.184;8.538;2023-04-29T05:39:45;14.00;99.90
7516;DHT22;3799;47.184;8.538;2023-04-29T05:42:15;13.80;99.90
7516;DHT22;3799;47.184;8.538;2023-04-29T05:44:50;13.90;99.90
7516;DHT22;3799;47.184;8.538;2023-04-29T05:47:28;13.90;99.90
7516;DHT22;3799;47.184;8.538;2023-04-29T05:49:56;14.10;99.90
7516;DHT22;3799;47.184;8.538;2023-04-29T05:52:23;14.20;99.90
7516;DHT22;3799;47.184;8.538;2023-04-29T05:54:51;14.00;99.90
7516;DHT22;3799;47.184;8.538;2023-04-29T05:57:21;14.10;99.90
7516;DHT22;3799;47.184;8.538;2023-04-29T05:59:49;14.40;99.90
7516;DHT22;3799;47.184;8.538;2023-04-29T06:02:17;14.50;99.90
7516;DHT22;3799;47.184;8.538;2023-04-29T06:04:44;14.80;99.90
7516;DHT22;3799;47.184;8.538;2023-04-29T06:07:13;14.30;99.90
7516;DHT22;3799;47.184;8.538;2023-04-29T06:09:43;14.80;99.90
7516;DHT22;3799;47.184;8.538;2023-04-29T06:12:10;14.90;99.90
7516;DHT22;3799;47.184;8.538;2023-04-29T06:14:37;14.90;99.90
7516;DHT22;3799;47.184;8.538;2023-04-29T06:17:05;15.00;99.90
7516;DHT22;3799;47.184;8.538;2023-04-29T06:19:32;15.10;99.90
7516;DHT22;3799;47.184;8.538;2023-04-29T06:22:00;15.30;99.90
7516;DHT22;3799;47.184;8.538;2023-04-29T06:24:27;15.20;99.90
7516;DHT22;3799;47.184;8.538;2023-04-29T06:27:02;15.20;99.90
7516;DHT22;3799;47.184;8.538;2023-04-29T06:29:30;15.40;99.90
7516;DHT22;3799;47.184;8.538;2023-04-29T06:31:58;15.40;99.90
7516;DHT22;3799;47.184;8.538;2023-04-29T06:34:25;15.10;99.90
7516;DHT22;3799;47.184;8.538;2023-04-29T06:36:53;15.30;99.90
7516;DHT22;3799;47.184;8.538;2023-04-29T06:39:21;15.50;99.90
7516;DHT22;3799;47.184;8.538;2023-04-29T06:41:48;15.50;99.90
7516;DHT22;3799;47.184;8.538;2023-04-29T06:44:16;15.40;99.90
7516;DHT22;3799;47.184;8.538;2023-04-29T06:46:44;15.60;99.90
7516;DHT22;3799;47.184;8.538;2023-04-29T06:49:11;15.80;99.90
7516;DHT22;3799;47.184;8.538;2023-04-29T06:51:39;15.60;99.90
7516;DHT22;3799;47.184;8.538;2023-04-29T06:54:08;15.60;99.90
7516;DHT22;3799;47.184;8.538;2023-04-29T06:56:36;15.80;99.90
7516;DHT22;3799;47.184;8.538;2023-04-29T06:59:03;15.60;99.90
7516;DHT22;3799;47.184;8.538;2023-04-29T07:01:31;15.80;99.90
7516;DHT22;3799;47.184;8.538;2023-04-29T07:03:58;15.60;99.90
7516;DHT22;3799;47.184;8.538;2023-04-29T07:06:26;15.60;99.90
7516;DHT22;3799;47.184;8.538;2023-04-29T07:08:58;15.60;99.90
7516;DHT22;3799;47.184;8.538;2023-04-29T07:11:26;15.50;99.90
7516;DHT22;3799;47.184;8.538;2023-04-29T07:13:53;15.50;99.90
7516;DHT22;3799;47.184;8.538;2023-04-29T07:16:21;15.60;99.90
7516;DHT22;3799;47.184;8.538;2023-04-29T07:18:56;15.70;99.90
7516;DHT22;3799;47.184;8.538;2023-04-29T07:21:23;15.60;99.90
7516;DHT22;3799;47.184;8.538;2023-04-29T07:23:50;15.60;99.90
7516;DHT22;3799;47.184;8.538;2023-04-29T07:26:18;15.50;99.90
7516;DHT22;3799;47.184;8.538;2023-04-29T07:28:46;15.60;99.90
7516;DHT22;3799;47.184;8.538;2023-04-29T07:31:14;15.80;99.90
7516;DHT22;3799;47.184;8.538;2023-04-29T07:33:41;16.20;99.90
7516;DHT22;3799;47.184;8.538;2023-04-29T07:36:11;16.00;99.90
7516;DHT22;3799;47.184;8.538;2023-04-29T07:38:38;16.00;99.90
7516;DHT22;3799;47.184;8.538;2023-04-29T07:41:06;16.10;99.90
7516;DHT22;3799;47.184;8.538;2023-04-29T07:43:33;16.30;99.90
7516;DHT22;3799;47.184;8.538;2023-04-29T07:46:03;16.40;99.90
7516;DHT22;3799;47.184;8.538;2023-04-29T07:48:38;16.40;99.90
7516;DHT22;3799;47.184;8.538;2023-04-29T07:51:05;16.70;99.90
7516;DHT22;3799;47.184;8.538;2023-04-29T07:53:33;16.70;99.90
7516;DHT22;3799;47.184;8.538;2023-04-29T07:56:05;17.20;99.90
7516;DHT22;3799;47.184;8.538;2023-04-29T07:58:33;17.40;99.90
7516;DHT22;3799;47.184;8.538;2023-04-29T08:01:19;17.40;99.90
7516;DHT22;3799;47.184;8.538;2023-04-29T08:03:47;17.60;99.90
7516;DHT22;3799;47.184;8.538;2023-04-29T08:06:14;17.60;99.90
7516;DHT22;3799;47.184;8.538;2023-04-29T08:08:42;17.70;99.90
7516;DHT22;3799;47.184;8.538;2023-04-29T08:11:15;17.60;99.90
7516;DHT22;3799;47.184;8.538;2023-04-29T08:13:49;17.90;99.90
7516;DHT22;3799;47.184;8.538;2023-04-29T08:16:27;17.90;99.90
7516;DHT22;3799;47.184;8.538;2023-04-29T08:18:54;17.90;99.90
7516;DHT22;3799;47.184;8.538;2023-04-29T08:21:36;18.00;99.90
7516;DHT22;3799;47.184;8.538;2023-04-29T08:24:09;18.00;99.90
7516;DHT22;3799;47.184;8.538;2023-04-29T08:26:39;17.80;99.90
7516;DHT22;3799;47.184;8.538;2023-04-29T08:29:07;17.90;99.90
7516;DHT22;3799;47.184;8.538;2023-04-29T08:31:40;18.00;99.90
7516;DHT22;3799;47.184;8.538;2023-04-29T08:34:21;17.90;99.90
7516;DHT22;3799;47.184;8.538;2023-04-29T08:36:49;17.90;99.90
7516;DHT22;3799;47.184;8.538;2023-04-29T08:39:16;17.80;99.90
7516;DHT22;3799;47.184;8.538;2023-04-29T08:41:57;17.90;99.90
7516;DHT22;3799;47.184;8.538;2023-04-29T08:44:26;18.20;99.90
7516;DHT22;3799;47.184;8.538;2023-04-29T08:47:03;18.10;99.90
7516;DHT22;3799;47.184;8.538;2023-04-29T08:49:31;18.20;99.90
7516;DHT22;3799;47.184;8.538;2023-04-29T08:51:59;18.20;99.90
7516;DHT22;3799;47.184;8.538;2023-04-29T08:54:27;18.10;99.90
7516;DHT22;3799;47.184;8.538;2023-04-29T08:56:55;18.30;99.90
7516;DHT22;3799;47.184;8.538;2023-04-29T08:59:24;18.70;99.90
7516;DHT22;3799;47.184;8.538;2023-04-29T09:01:53;18.60;99.90
7516;DHT22;3799;47.184;8.538;2023-04-29T09:04:44;18.80;99.90
7516;DHT22;3799;47.184;8.538;2023-04-29T09:07:14;18.90;99.90
7516;DHT22;3799;47.184;8.538;2023-04-29T09:09:42;18.90;99.90
7516;DHT22;3799;47.184;8.538;2023-04-29T09:12:10;19.20;99.90
7516;DHT22;3799;47.184;8.538;2023-04-29T09:14:37;19.10;99.90
7516;DHT22;3799;47.184;8.538;2023-04-29T09:17:05;19.10;99.90
7516;DHT22;3799;47.184;8.538;2023-04-29T09:19:35;19.30;99.90
7516;DHT22;3799;47.184;8.538;2023-04-29T09:22:04;19.40;99.90
7516;DHT22;3799;47.184;8.538;2023-04-29T09:24:34;19.50;99.90
7516;DHT22;3799;47.184;8.538;2023-04-29T09:27:27;19.70;99.90
7516;DHT22;3799;47.184;8.538;2023-04-29T09:30:01;19.60;99.90
7516;DHT22;3799;47.184;8.538;2023-04-29T09:32:31;19.90;99.90
7516;DHT22;3799;47.184;8.538;2023-04-29T09:37:48;20.10;99.90
7516;DHT22;3799;47.184;8.538;2023-04-29T09:40:32;19.80;99.80
7516;DHT22;3799;47.184;8.538;2023-04-29T09:43:17;20.00;99.90
7516;DHT22;3799;47.184;8.538;2023-04-29T09:45:47;20.40;99.90
7516;DHT22;3799;47.184;8.538;2023-04-29T09:48:18;20.50;99.00
7516;DHT22;3799;47.184;8.538;2023-04-29T09:50:59;20.60;98.60
7516;DHT22;3799;47.184;8.538;2023-04-29T09:53:30;20.40;98.00
7516;DHT22;3799;47.184;8.538;2023-04-29T09:56:00;20.30;98.00
7516;DHT22;3799;47.184;8.538;2023-04-29T09:58:29;20.20;98.00
7516;DHT22;3799;47.184;8.538;2023-04-29T10:01:02;20.10;98.70
7516;DHT22;3799;47.184;8.538;2023-04-29T10:03:34;20.10;99.10
7516;DHT22;3799;47.184;8.538;2023-04-29T10:06:06;19.80;99.20
7516;DHT22;3799;47.184;8.538;2023-04-29T10:08:35;20.00;99.60
7516;DHT22;3799;47.184;8.538;2023-04-29T10:11:03;20.20;99.20
7516;DHT22;3799;47.184;8.538;2023-04-29T10:13:34;20.50;98.70
7516;DHT22;3799;47.184;8.538;2023-04-29T10:18:51;21.10;97.80
7516;DHT22;3799;47.184;8.538;2023-04-29T10:21:26;21.20;95.90
7516;DHT22;3799;47.184;8.538;2023-04-29T10:24:05;21.20;96.50
7516;DHT22;3799;47.184;8.538;2023-04-29T10:26:34;21.40;97.70
7516;DHT22;3799;47.184;8.538;2023-04-29T10:29:06;21.50;97.00
7516;DHT22;3799;47.184;8.538;2023-04-29T10:31:36;21.60;94.40
7516;DHT22;3799;47.184;8.538;2023-04-29T10:34:06;21.70;93.10
7516;DHT22;3799;47.184;8.538;2023-04-29T10:36:34;21.90;92.60
7516;DHT22;3799;47.184;8.538;2023-04-29T10:39:04;22.10;91.40
7516;DHT22;3799;47.184;8.538;2023-04-29T10:41:45;22.20;89.10
7516;DHT22;3799;47.184;8.538;2023-04-29T10:44:19;22.40;87.00
7516;DHT22;3799;47.184;8.538;2023-04-29T10:46:46;22.60;89.00
7516;DHT22;3799;47.184;8.538;2023-04-29T10:49:14;22.80;86.10
7516;DHT22;3799;47.184;8.538;2023-04-29T10:51:43;23.10;83.50
7516;DHT22;3799;47.184;8.538;2023-04-29T10:54:13;23.30;80.10
7516;DHT22;3799;47.184;8.538;2023-04-29T10:56:47;23.40;79.10
7516;DHT22;3799;47.184;8.538;2023-04-29T10:59:43;23.40;77.50
7516;DHT22;3799;47.184;8.538;2023-04-29T11:02:10;23.60;73.80
7516;DHT22;3799;47.184;8.538;2023-04-29T11:05:05;23.70;73.60
7516;DHT22;3799;47.184;8.538;2023-04-29T11:07:33;23.70;73.20
7516;DHT22;3799;47.184;8.538;2023-04-29T11:10:02;23.70;70.50
7516;DHT22;3799;47.184;8.538;2023-04-29T11:12:33;23.60;70.60
7516;DHT22;3799;47.184;8.538;2023-04-29T11:15:00;23.60;70.00
7516;DHT22;3799;47.184;8.538;2023-04-29T11:17:35;23.70;68.60
7516;DHT22;3799;47.184;8.538;2023-04-29T11:20:14;23.70;65.90
7516;DHT22;3799;47.184;8.538;2023-04-29T11:22:50;24.00;65.50
7516;DHT22;3799;47.184;8.538;2023-04-29T11:25:18;24.20;62.60
7516;DHT22;3799;47.184;8.538;2023-04-29T11:27:46;24.20;62.00
7516;DHT22;3799;47.184;8.538;2023-04-29T11:30:15;24.40;60.90
7516;DHT22;3799;47.184;8.538;2023-04-29T11:32:44;24.70;60.00
7516;DHT22;3799;47.184;8.538;2023-04-29T11:35:16;24.90;59.90
7516;DHT22;3799;47.184;8.538;2023-04-29T11:37:46;25.20;59.10
7516;DHT22;3799;47.184;8.538;2023-04-29T11:40:14;25.40;58.40
7516;DHT22;3799;47.184;8.538;2023-04-29T11:42:47;25.40;58.50
7516;DHT22;3799;47.184;8.538;2023-04-29T11:45:22;25.40;57.30
7516;DHT22;3799;47.184;8.538;2023-04-29T11:47:49;25.50;57.20
7516;DHT22;3799;47.184;8.538;2023-04-29T11:50:20;25.60;57.00
7516;DHT22;3799;47.184;8.538;2023-04-29T11:52:49;25.80;56.70
7516;DHT22;3799;47.184;8.538;2023-04-29T11:55:18;26.00;55.90
7516;DHT22;3799;47.184;8.538;2023-04-29T11:57:48;26.30;55.50
7516;DHT22;3799;47.184;8.538;2023-04-29T12:00:24;26.50;54.80
7516;DHT22;3799;47.184;8.538;2023-04-29T12:02:52;26.80;54.50
7516;DHT22;3799;47.184;8.538;2023-04-29T12:05:19;26.90;54.30
7516;DHT22;3799;47.184;8.538;2023-04-29T12:07:49;27.00;53.60
7516;DHT22;3799;47.184;8.538;2023-04-29T12:10:16;27.10;53.20
7516;DHT22;3799;47.184;8.538;2023-04-29T12:12:44;26.70;53.00
7516;DHT22;3799;47.184;8.538;2023-04-29T12:15:13;26.20;54.00
7516;DHT22;3799;47.184;8.538;2023-04-29T12:17:43;25.60;54.30
7516;DHT22;3799;47.184;8.538;2023-04-29T12:20:15;25.00;55.20
7516;DHT22;3799;47.184;8.538;2023-04-29T12:22:42;24.60;55.60
7516;DHT22;3799;47.184;8.538;2023-04-29T12:25:10;24.20;56.80
7516;DHT22;3799;47.184;8.538;2023-04-29T12:27:39;23.80;57.40
7516;DHT22;3799;47.184;8.538;2023-04-29T12:30:10;23.60;57.60
7516;DHT22;3799;47.184;8.538;2023-04-29T12:32:39;23.30;58.30
7516;DHT22;3799;47.184;8.538;2023-04-29T12:35:14;23.10;58.70
7516;DHT22;3799;47.184;8.538;2023-04-29T12:37:46;23.00;59.30
7516;DHT22;3799;47.184;8.538;2023-04-29T12:40:14;22.80;58.90
7516;DHT22;3799;47.184;8.538;2023-04-29T12:42:42;22.70;59.70
7516;DHT22;3799;47.184;8.538;2023-04-29T12:45:33;22.60;59.90
7516;DHT22;3799;47.184;8.538;2023-04-29T12:48:01;22.50;61.80
7516;DHT22;3799;47.184;8.538;2023-04-29T12:50:37;22.50;62.60
7516;DHT22;3799;47.184;8.538;2023-04-29T12:53:06;22.50;63.60
7516;DHT22;3799;47.184;8.538;2023-04-29T12:55:34;22.40;63.80
7516;DHT22;3799;47.184;8.538;2023-04-29T12:58:03;22.40;66.20
7516;DHT22;3799;47.184;8.538;2023-04-29T13:00:31;22.40;67.10
7516;DHT22;3799;47.184;8.538;2023-04-29T13:03:01;22.40;66.20
7516;DHT22;3799;47.184;8.538;2023-04-29T13:05:29;22.40;66.40
7516;DHT22;3799;47.184;8.538;2023-04-29T13:07:57;22.70;66.30
7516;DHT22;3799;47.184;8.538;2023-04-29T13:10:24;23.10;60.40
7516;DHT22;3799;47.184;8.538;2023-04-29T13:12:52;23.80;58.10
7516;DHT22;3799;47.184;8.538;2023-04-29T13:15:20;24.20;55.80
7516;DHT22;3799;47.184;8.538;2023-04-29T13:17:52;24.40;54.80
7516;DHT22;3799;47.184;8.538;2023-04-29T13:20:21;24.50;53.60
7516;DHT22;3799;47.184;8.538;2023-04-29T13:22:50;24.60;54.50
7516;DHT22;3799;47.184;8.538;2023-04-29T13:25:18;24.80;55.60
7516;DHT22;3799;47.184;8.538;2023-04-29T13:27:57;25.20;55.10
7516;DHT22;3799;47.184;8.538;2023-04-29T13:30:24;26.00;53.10
7516;DHT22;3799;47.184;8.538;2023-04-29T13:32:52;26.50;50.00
7516;DHT22;3799;47.184;8.538;2023-04-29T13:35:33;26.80;49.70
7516;DHT22;3799;47.184;8.538;2023-04-29T13:38:04;27.30;46.90
7516;DHT22;3799;47.184;8.538;2023-04-29T13:40:32;28.00;46.00
7516;DHT22;3799;47.184;8.538;2023-04-29T13:43:05;28.70;45.90
7516;DHT22;3799;47.184;8.538;2023-04-29T13:45:36;29.30;45.30
7516;DHT22;3799;47.184;8.538;2023-04-29T13:48:09;29.70;44.20
7516;DHT22;3799;47.184;8.538;2023-04-29T13:50:57;30.10;43.40
7516;DHT22;3799;47.184;8.538;2023-04-29T13:53:27;30.10;43.10
7516;DHT22;3799;47.184;8.538;2023-04-29T13:55:58;30.00;40.80
7516;DHT22;3799;47.184;8.538;2023-04-29T13:58:28;29.80;40.90
7516;DHT22;3799;47.184;8.538;2023-04-29T14:01:16;29.70;41.70
7516;DHT22;3799;47.184;8.538;2023-04-29T14:04:03;29.60;41.50
7516;DHT22;3799;47.184;8.538;2023-04-29T14:06:31;29.60;42.20
7516;DHT22;3799;47.184;8.538;2023-04-29T14:09:03;29.40;42.60
7516;DHT22;3799;47.184;8.538;2023-04-29T14:11:30;29.20;42.00
7516;DHT22;3799;47.184;8.538;2023-04-29T14:14:03;29.00;43.00
7516;DHT22;3799;47.184;8.538;2023-04-29T14:16:33;28.80;43.20
7516;DHT22;3799;47.184;8.538;2023-04-29T14:19:02;28.70;43.10
7516;DHT22;3799;47.184;8.538;2023-04-29T14:21:30;28.80;43.30
7516;DHT22;3799;47.184;8.538;2023-04-29T14:24:00;28.60;43.80
7516;DHT22;3799;47.184;8.538;2023-04-29T14:26:30;28.60;44.20
7516;DHT22;3799;47.184;8.538;2023-04-29T14:28:58;28.80;44.00
7516;DHT22;3799;47.184;8.538;2023-04-29T14:31:27;29.10;44.00
7516;DHT22;3799;47.184;8.538;2023-04-29T14:33:56;29.30;43.40
7516;DHT22;3799;47.184;8.538;2023-04-29T14:36:24;29.40;44.00
7516;DHT22;3799;47.184;8.538;2023-04-29T14:38:55;29.50;44.60
7516;DHT22;3799;47.184;8.538;2023-04-29T14:41:22;29.70;44.10
7516;DHT22;3799;47.184;8.538;2023-04-29T14:43:50;29.70;43.30
7516;DHT22;3799;47.184;8.538;2023-04-29T14:46:17;29.70;42.30
7516;DHT22;3799;47.184;8.538;2023-04-29T14:48:45;29.80;42.70
7516;DHT22;3799;47.184;8.538;2023-04-29T14:51:12;29.70;42.10
7516;DHT22;3799;47.184;8.538;2023-04-29T14:53:42;29.70;42.20
7516;DHT22;3799;47.184;8.538;2023-04-29T14:56:11;29.60;41.50
7516;DHT22;3799;47.184;8.538;2023-04-29T14:58:38;29.70;41.40
7516;DHT22;3799;47.184;8.538;2023-04-29T15:01:07;29.70;40.90
7516;DHT22;3799;47.184;8.538;2023-04-29T15:03:35;29.60;40.80
7516;DHT22;3799;47.184;8.538;2023-04-29T15:06:11;29.50;40.60
7516;DHT22;3799;47.184;8.538;2023-04-29T15:08:38;29.30;40.70
7516;DHT22;3799;47.184;8.538;2023-04-29T15:11:06;29.30;41.00
7516;DHT22;3799;47.184;8.538;2023-04-29T15:13:33;29.20;40.50
7516;DHT22;3799;47.184;8.538;2023-04-29T15:16:01;28.90;40.60
7516;DHT22;3799;47.184;8.538;2023-04-29T15:18:28;28.40;41.40
7516;DHT22;3799;47.184;8.538;2023-04-29T15:20:56;27.90;41.60
7516;DHT22;3799;47.184;8.538;2023-04-29T15:23:23;27.30;42.30
7516;DHT22;3799;47.184;8.538;2023-04-29T15:25:50;26.90;42.40
7516;DHT22;3799;47.184;8.538;2023-04-29T15:28:19;26.40;43.30
7516;DHT22;3799;47.184;8.538;2023-04-29T15:30:47;25.80;43.70
7516;DHT22;3799;47.184;8.538;2023-04-29T15:33:14;25.40;44.40
7516;DHT22;3799;47.184;8.538;2023-04-29T15:35:41;25.00;45.10
7516;DHT22;3799;47.184;8.538;2023-04-29T15:38:08;24.70;45.40
7516;DHT22;3799;47.184;8.538;2023-04-29T15:40:36;24.50;45.20
7516;DHT22;3799;47.184;8.538;2023-04-29T15:43:03;24.30;45.60
7516;DHT22;3799;47.184;8.538;2023-04-29T15:45:31;24.10;45.70
7516;DHT22;3799;47.184;8.538;2023-04-29T15:47:58;24.00;45.90
7516;DHT22;3799;47.184;8.538;2023-04-29T15:50:26;23.80;46.00
7516;DHT22;3799;47.184;8.538;2023-04-29T15:52:53;23.70;46.00
7516;DHT22;3799;47.184;8.538;2023-04-29T15:55:23;23.50;46.50
7516;DHT22;3799;47.184;8.538;2023-04-29T15:57:51;23.40;46.90
7516;DHT22;3799;47.184;8.538;2023-04-29T16:00:18;23.30;46.60
7516;DHT22;3799;47.184;8.538;2023-04-29T16:02:46;23.20;47.30
7516;DHT22;3799;47.184;8.538;2023-04-29T16:05:15;23.20;47.40
7516;DHT22;3799;47.184;8.538;2023-04-29T16:07:42;23.30;47.70
7516;DHT22;3799;47.184;8.538;2023-04-29T16:10:10;23.40;47.80
7516;DHT22;3799;47.184;8.538;2023-04-29T16:12:37;23.40;48.20
7516;DHT22;3799;47.184;8.538;2023-04-29T16:15:13;23.40;48.70
7516;DHT22;3799;47.184;8.538;2023-04-29T16:17:41;23.30;49.20
7516;DHT22;3799;47.184;8.538;2023-04-29T16:20:09;23.20;49.40
7516;DHT22;3799;47.184;8.538;2023-04-29T16:22:36;23.10;49.40
7516;DHT22;3799;47.184;8.538;2023-04-29T16:25:04;22.80;50.30
7516;DHT22;3799;47.184;8.538;2023-04-29T16:27:34;22.50;51.30